Time;durP1;ratioP1;P1;durP2;ratioP2;P2;SDS_P1;SDS_P2;PMS_P1;PMS_P2;Temp;Humidity;BMP_temperature;BMP_pressure;BME280_temperature;BME280_humidity;BME280_pressure;Samples;Min_cycle;Max_cycle;Signal;HPM_P1;HPM_P2
2023/09/02 00:01:33;;;;;;;75.15;32.70;;;;;;;;;;4999000;28;20423;-62
2023/09/02 00:04:02;;;;;;;72.15;31.75;;;;;;;;;;4992523;28;20415;-62
2023/09/02 00:06:29;;;;;;;65.15;30.55;;;;;;;;;;4997296;28;20422;-61
2023/09/02 00:08:56;;;;;;;67.78;31.85;;;;;;;;;;4986521;28;20438;-62
2023/09/02 00:11:23;;;;;;;68.22;31.13;;;;;;;;;;4994494;28;20423;-61
2023/09/02 00:13:50;;;;;;;61.80;29.55;;;;;;;;;;4988224;28;20425;-61
2023/09/02 00:16:18;;;;;;;63.85;29.45;;;;;;;;;;4993955;28;20421;-63
2023/09/02 00:18:46;;;;;;;55.57;28.33;;;;;;;;;;4987490;28;20450;-61
2023/09/02 00:21:13;;;;;;;56.92;27.85;;;;;;;;;;4994481;28;20418;-61
2023/09/02 00:23:43;;;;;;;53.90;27.02;;;;;;;;;;4991115;28;20431;-61
2023/09/02 00:26:10;;;;;;;57.07;27.10;;;;;;;;;;4998507;28;20951;-62
2023/09/02 00:28:37;;;;;;;58.65;27.70;;;;;;;;;;4989634;28;20430;-61
2023/09/02 00:31:04;;;;;;;53.30;27.43;;;;;;;;;;4994127;28;20982;-62
2023/09/02 00:33:31;;;;;;;59.25;28.52;;;;;;;;;;4987470;28;20435;-62
2023/09/02 00:36:00;;;;;;;53.05;27.30;;;;;;;;;;4995516;28;20421;-62
2023/09/02 00:38:27;;;;;;;57.22;27.58;;;;;;;;;;4986113;28;20416;-63
2023/09/02 00:41:00;;;;;;;55.10;27.80;;;;;;;;;;4994841;28;20793;-61
2023/09/02 00:43:27;;;;;;;58.63;28.52;;;;;;;;;;4983680;28;20426;-63
2023/09/02 00:45:54;;;;;;;58.47;27.73;;;;;;;;;;4985161;28;20437;-61
2023/09/02 00:48:21;;;;;;;57.60;27.67;;;;;;;;;;4987877;28;20801;-62
2023/09/02 00:50:49;;;;;;;58.67;27.70;;;;;;;;;;4989962;28;20520;-62
2023/09/02 00:53:18;;;;;;;57.03;28.02;;;;;;;;;;4985183;28;20414;-62
2023/09/02 00:55:45;;;;;;;59.60;27.05;;;;;;;;;;4988326;28;20422;-62
2023/09/02 00:58:13;;;;;;;58.20;27.40;;;;;;;;;;4985196;28;20414;-61
2023/09/02 01:00:40;;;;;;;60.15;28.63;;;;;;;;;;4986979;28;20419;-62
2023/09/02 01:03:07;;;;;;;57.35;27.00;;;;;;;;;;4985093;28;20421;-62
2023/09/02 01:05:34;;;;;;;63.08;28.20;;;;;;;;;;4986273;28;20891;-62
2023/09/02 01:08:02;;;;;;;62.43;28.80;;;;;;;;;;4984875;28;20469;-61
2023/09/02 01:10:31;;;;;;;59.53;27.65;;;;;;;;;;4985071;28;20420;-62
2023/09/02 01:12:58;;;;;;;55.58;25.70;;;;;;;;;;4984375;28;20418;-61
2023/09/02 01:15:25;;;;;;;53.67;26.53;;;;;;;;;;4984958;28;20768;-61
2023/09/02 01:17:52;;;;;;;51.08;25.48;;;;;;;;;;4990112;28;20405;-61
2023/09/02 01:20:20;;;;;;;46.93;24.27;;;;;;;;;;4988044;28;20506;-61
2023/09/02 01:23:00;;;;;;;46.90;24.27;;;;;;;;;;4992877;28;20413;-61
2023/09/02 01:25:38;;;;;;;48.80;24.90;;;;;;;;;;4987590;28;20444;-61
2023/09/02 01:28:09;;;;;;;51.10;24.80;;;;;;;;;;4992766;28;20505;-62
2023/09/02 01:30:36;;;;;;;50.40;25.48;;;;;;;;;;4988480;28;20426;-61
2023/09/02 01:33:06;;;;;;;56.60;26.23;;;;;;;;;;4992163;28;20429;-61
2023/09/02 01:35:34;;;;;;;56.10;26.23;;;;;;;;;;4986017;28;20408;-61
2023/09/02 01:38:03;;;;;;;56.53;27.40;;;;;;;;;;4991830;28;20433;-61
2023/09/02 01:40:32;;;;;;;55.88;27.02;;;;;;;;;;4986340;28;20447;-62
2023/09/02 01:43:00;;;;;;;54.88;26.98;;;;;;;;;;4995719;28;20438;-61
2023/09/02 01:45:30;;;;;;;59.42;28.23;;;;;;;;;;4982822;28;20416;-61
2023/09/02 01:47:58;;;;;;;54.53;27.23;;;;;;;;;;4990415;28;20450;-61
2023/09/02 01:50:27;;;;;;;57.75;27.45;;;;;;;;;;4983957;28;20423;-61
2023/09/02 01:52:55;;;;;;;54.03;26.88;;;;;;;;;;4994929;28;20424;-61
2023/09/02 01:55:22;;;;;;;57.78;27.23;;;;;;;;;;4983058;28;20886;-61
2023/09/02 01:57:49;;;;;;;58.35;26.88;;;;;;;;;;4994807;28;20412;-62
2023/09/02 02:00:17;;;;;;;56.97;27.35;;;;;;;;;;4981121;28;20926;-62
2023/09/02 02:02:46;;;;;;;58.17;27.58;;;;;;;;;;4994465;28;20427;-61
2023/09/02 02:05:14;;;;;;;55.27;26.83;;;;;;;;;;4989072;28;20445;-61
2023/09/02 02:07:43;;;;;;;61.58;27.65;;;;;;;;;;4992953;28;20424;-61
2023/09/02 02:10:13;;;;;;;62.23;28.00;;;;;;;;;;4988180;28;20536;-61
2023/09/02 02:12:42;;;;;;;65.20;27.50;;;;;;;;;;4991799;28;20411;-61
2023/09/02 02:15:11;;;;;;;55.72;26.27;;;;;;;;;;4983973;28;20931;-62
2023/09/02 02:17:38;;;;;;;55.53;26.38;;;;;;;;;;4986577;28;20428;-61
2023/09/02 02:20:09;;;;;;;62.90;27.35;;;;;;;;;;4987542;28;20421;-61
2023/09/02 02:22:36;;;;;;;59.05;27.55;;;;;;;;;;4989849;28;20539;-61
2023/09/02 02:25:03;;;;;;;59.33;27.73;;;;;;;;;;4986835;28;20416;-61
2023/09/02 02:27:30;;;;;;;54.40;26.17;;;;;;;;;;4989111;28;20462;-61
2023/09/02 02:29:58;;;;;;;55.30;26.20;;;;;;;;;;4986459;28;20524;-62
2023/09/02 02:32:25;;;;;;;54.88;25.67;;;;;;;;;;4988108;28;20404;-61
2023/09/02 02:34:53;;;;;;;54.57;24.97;;;;;;;;;;4992541;28;20887;-61
2023/09/02 02:37:22;;;;;;;56.33;25.50;;;;;;;;;;4987099;28;20937;-61
2023/09/02 02:39:49;;;;;;;55.07;25.33;;;;;;;;;;4991863;28;20984;-62
2023/09/02 02:42:16;;;;;;;51.25;24.30;;;;;;;;;;4986817;28;20418;-61
2023/09/02 02:44:43;;;;;;;50.17;24.85;;;;;;;;;;4986834;28;20424;-62
2023/09/02 02:47:10;;;;;;;52.63;25.00;;;;;;;;;;4984634;28;20437;-62
2023/09/02 02:49:37;;;;;;;51.70;24.58;;;;;;;;;;4989987;28;20432;-62
2023/09/02 02:52:04;;;;;;;49.90;23.23;;;;;;;;;;4987340;28;20419;-62
2023/09/02 02:54:36;;;;;;;50.83;24.05;;;;;;;;;;4988197;28;20452;-61
2023/09/02 02:57:03;;;;;;;54.85;24.08;;;;;;;;;;4989272;28;20503;-62
2023/09/02 02:59:30;;;;;;;53.28;23.90;;;;;;;;;;4998048;28;20422;-62
2023/09/02 03:01:58;;;;;;;53.60;24.23;;;;;;;;;;4991645;28;20793;-62
2023/09/02 03:04:25;;;;;;;49.47;22.80;;;;;;;;;;4995940;28;20442;-62
2023/09/02 03:06:52;;;;;;;51.53;23.52;;;;;;;;;;4996049;28;20456;-62
2023/09/02 03:09:19;;;;;;;46.47;22.87;;;;;;;;;;4994639;28;20460;-62
2023/09/02 03:11:47;;;;;;;44.45;21.70;;;;;;;;;;4991294;28;20419;-63
2023/09/02 03:14:14;;;;;;;45.00;21.88;;;;;;;;;;4994611;28;20828;-63
2023/09/02 03:16:41;;;;;;;45.10;22.55;;;;;;;;;;4987025;28;20431;-61
2023/09/02 03:19:08;;;;;;;40.97;20.27;;;;;;;;;;4994150;28;20421;-62
2023/09/02 03:21:35;;;;;;;41.50;20.85;;;;;;;;;;4989604;28;20421;-61
2023/09/02 03:24:04;;;;;;;38.25;20.10;;;;;;;;;;4998828;28;20425;-62
2023/09/02 03:26:31;;;;;;;39.72;20.83;;;;;;;;;;4990743;28;20460;-62
2023/09/02 03:28:59;;;;;;;36.42;19.13;;;;;;;;;;4998712;28;20438;-61
2023/09/02 03:31:26;;;;;;;35.50;18.85;;;;;;;;;;4986825;28;20451;-62
2023/09/02 03:33:53;;;;;;;34.05;18.77;;;;;;;;;;4998365;28;20494;-62
2023/09/02 03:36:20;;;;;;;37.67;19.10;;;;;;;;;;4985744;28;20787;-62
2023/09/02 03:38:47;;;;;;;36.17;18.77;;;;;;;;;;4998404;28;20506;-62
2023/09/02 03:41:17;;;;;;;33.35;18.60;;;;;;;;;;4985942;28;20414;-62
2023/09/02 03:43:44;;;;;;;33.75;18.90;;;;;;;;;;4997420;28;20429;-62
2023/09/02 03:46:12;;;;;;;34.55;19.08;;;;;;;;;;4987156;28;20422;-62
2023/09/02 03:48:39;;;;;;;30.98;18.42;;;;;;;;;;4992407;28;20439;-61
2023/09/02 03:51:11;;;;;;;31.80;18.48;;;;;;;;;;4991420;28;20417;-63
2023/09/02 03:53:38;;;;;;;31.58;18.00;;;;;;;;;;4994980;28;20416;-61
2023/09/02 03:56:05;;;;;;;29.63;17.40;;;;;;;;;;4991126;28;20424;-62
2023/09/02 03:58:32;;;;;;;31.77;17.08;;;;;;;;;;5000329;28;20445;-62
2023/09/02 04:01:00;;;;;;;33.50;17.43;;;;;;;;;;4989772;28;20909;-61
2023/09/02 04:03:28;;;;;;;27.88;16.58;;;;;;;;;;4992073;28;20424;-59
2023/09/02 04:05:55;;;;;;;29.73;16.35;;;;;;;;;;4996869;28;20431;-62
2023/09/02 04:08:25;;;;;;;29.98;16.27;;;;;;;;;;4990697;28;20426;-61
2023/09/02 04:10:53;;;;;;;29.55;15.95;;;;;;;;;;4992533;28;20434;-62
2023/09/02 04:13:22;;;;;;;25.47;15.80;;;;;;;;;;4991146;28;20418;-62
2023/09/02 04:15:49;;;;;;;25.83;14.82;;;;;;;;;;4989232;28;20840;-63
2023/09/02 04:18:16;;;;;;;25.77;13.95;;;;;;;;;;4989095;28;20426;-62
2023/09/02 04:20:44;;;;;;;22.90;13.70;;;;;;;;;;4994630;28;20413;-62
2023/09/02 04:23:11;;;;;;;22.50;13.77;;;;;;;;;;4989166;28;20410;-62
2023/09/02 04:25:46;;;;;;;24.63;13.55;;;;;;;;;;4990922;28;20519;-59
2023/09/02 04:28:13;;;;;;;24.00;13.18;;;;;;;;;;4987193;28;20414;-61
2023/09/02 04:30:40;;;;;;;23.65;13.63;;;;;;;;;;4999339;28;20957;-61
2023/09/02 04:33:07;;;;;;;23.05;12.88;;;;;;;;;;4989675;28;20418;-61
2023/09/02 04:35:36;;;;;;;20.30;12.73;;;;;;;;;;4997812;28;20579;-62
2023/09/02 04:38:05;;;;;;;20.52;12.90;;;;;;;;;;4992640;28;20414;-62
2023/09/02 04:40:32;;;;;;;20.98;12.23;;;;;;;;;;4995674;28;20422;-63
2023/09/02 04:42:59;;;;;;;20.57;12.73;;;;;;;;;;4999753;28;20996;-62
2023/09/02 04:45:26;;;;;;;19.20;12.00;;;;;;;;;;4992119;28;20423;-62
2023/09/02 04:47:53;;;;;;;20.13;12.15;;;;;;;;;;4988003;28;20825;-62
2023/09/02 04:50:20;;;;;;;16.45;11.00;;;;;;;;;;4990842;28;20502;-62
2023/09/02 04:52:48;;;;;;;14.52;9.48;;;;;;;;;;4987560;28;20430;-62
2023/09/02 04:55:19;;;;;;;14.70;8.90;;;;;;;;;;4997482;28;20419;-62
2023/09/02 04:57:46;;;;;;;13.93;8.88;;;;;;;;;;4988076;28;20863;-63
2023/09/02 05:00:14;;;;;;;11.40;8.60;;;;;;;;;;4981184;28;20451;-63
2023/09/02 05:02:43;;;;;;;14.20;9.13;;;;;;;;;;4981471;28;20416;-63
2023/09/02 05:05:10;;;;;;;14.13;9.00;;;;;;;;;;4990794;28;20414;-62
2023/09/02 05:07:38;;;;;;;15.43;9.30;;;;;;;;;;4983824;28;20417;-62
2023/09/02 05:10:05;;;;;;;14.55;9.80;;;;;;;;;;4991210;28;20441;-61
2023/09/02 05:12:34;;;;;;;13.35;9.20;;;;;;;;;;4983415;28;20431;-62
2023/09/02 05:15:01;;;;;;;12.10;8.75;;;;;;;;;;4989219;28;20968;-62
2023/09/02 05:17:28;;;;;;;12.43;9.00;;;;;;;;;;4983302;28;20903;-63
2023/09/02 05:19:55;;;;;;;11.00;8.55;;;;;;;;;;4994876;28;20416;-62
2023/09/02 05:22:22;;;;;;;11.65;8.45;;;;;;;;;;4983973;28;20424;-64
2023/09/02 05:24:49;;;;;;;15.48;8.45;;;;;;;;;;4992946;28;20425;-63
2023/09/02 05:27:16;;;;;;;10.20;8.10;;;;;;;;;;4983190;28;20423;-63
2023/09/02 05:29:45;;;;;;;13.20;8.70;;;;;;;;;;4994053;28;20432;-62
2023/09/02 05:32:13;;;;;;;11.60;8.18;;;;;;;;;;4988915;28;20412;-63
2023/09/02 05:34:40;;;;;;;9.90;6.90;;;;;;;;;;4992631;28;20431;-62
2023/09/02 05:37:08;;;;;;;9.27;7.18;;;;;;;;;;4987191;28;20429;-62
2023/09/02 05:39:35;;;;;;;11.27;8.05;;;;;;;;;;4991829;28;20443;-63
2023/09/02 05:42:02;;;;;;;12.45;7.97;;;;;;;;;;4984439;28;20409;-62
2023/09/02 05:44:29;;;;;;;10.18;7.53;;;;;;;;;;4989929;28;20424;-63
2023/09/02 05:46:58;;;;;;;12.13;7.30;;;;;;;;;;4984101;28;20418;-62
2023/09/02 05:49:25;;;;;;;9.18;6.97;;;;;;;;;;4989470;28;20948;-62
2023/09/02 05:51:52;;;;;;;10.30;6.90;;;;;;;;;;4987420;28;20419;-62
2023/09/02 05:54:19;;;;;;;10.07;7.00;;;;;;;;;;4989632;28;20415;-62
2023/09/02 05:56:48;;;;;;;8.25;6.20;;;;;;;;;;4992875;28;20424;-62
2023/09/02 05:59:15;;;;;;;8.23;6.85;;;;;;;;;;4985737;28;20410;-63
2023/09/02 06:01:43;;;;;;;9.82;6.60;;;;;;;;;;4990628;28;20420;-63
2023/09/02 06:04:11;;;;;;;9.88;7.43;;;;;;;;;;4989510;28;20426;-63
2023/09/02 06:06:40;;;;;;;9.27;7.18;;;;;;;;;;4989131;28;21344;-62
2023/09/02 06:09:07;;;;;;;8.93;6.47;;;;;;;;;;4989179;28;20423;-62
2023/09/02 06:11:35;;;;;;;9.70;6.90;;;;;;;;;;4987995;28;20505;-63
2023/09/02 06:14:02;;;;;;;11.52;7.65;;;;;;;;;;4989654;28;20414;-62
2023/09/02 06:16:30;;;;;;;10.32;7.00;;;;;;;;;;4982528;28;20450;-63
2023/09/02 06:18:57;;;;;;;8.27;6.83;;;;;;;;;;4988077;28;20425;-62
2023/09/02 06:21:25;;;;;;;9.32;6.70;;;;;;;;;;4992089;28;20417;-63
2023/09/02 06:23:52;;;;;;;8.55;6.00;;;;;;;;;;4989797;28;20424;-64
2023/09/02 06:26:19;;;;;;;9.35;6.30;;;;;;;;;;4992363;28;20418;-63
2023/09/02 06:28:46;;;;;;;9.20;5.60;;;;;;;;;;4988610;28;20521;-62
2023/09/02 06:31:13;;;;;;;6.90;6.15;;;;;;;;;;4994340;28;20521;-63
2023/09/02 06:33:40;;;;;;;8.10;5.67;;;;;;;;;;4991444;28;20471;-63
2023/09/02 06:36:11;;;;;;;6.55;5.18;;;;;;;;;;4986308;28;21178;-63
2023/09/02 06:38:39;;;;;;;6.22;5.15;;;;;;;;;;4990466;28;20420;-68
2023/09/02 06:41:12;;;;;;;6.20;5.20;;;;;;;;;;4988663;28;20424;-64
2023/09/02 06:43:39;;;;;;;8.35;5.80;;;;;;;;;;4987425;28;20422;-62
2023/09/02 06:46:10;;;;;;;6.80;5.43;;;;;;;;;;4989147;28;20809;-65
2023/09/02 06:48:37;;;;;;;6.32;5.72;;;;;;;;;;4994862;28;20409;-64
2023/09/02 06:51:04;;;;;;;8.30;5.40;;;;;;;;;;5006024;28;20430;-64
2023/09/02 06:53:31;;;;;;;7.60;5.13;;;;;;;;;;4989880;28;20418;-64
2023/09/02 06:56:00;;;;;;;9.13;5.10;;;;;;;;;;4997671;28;20418;-63
2023/09/02 06:58:27;;;;;;;7.77;5.00;;;;;;;;;;4993163;28;20421;-63
2023/09/02 07:00:54;;;;;;;5.15;4.22;;;;;;;;;;4985519;28;20801;-63
2023/09/02 07:03:21;;;;;;;5.65;3.80;;;;;;;;;;4996473;28;20414;-64
2023/09/02 07:05:47;;;;;;;4.78;3.88;;;;;;;;;;4992445;28;20422;-63
2023/09/02 07:08:14;;;;;;;3.80;3.50;;;;;;;;;;4996630;28;20552;-63
2023/09/02 07:10:41;;;;;;;4.15;3.20;;;;;;;;;;4992284;28;20435;-63
2023/09/02 07:13:10;;;;;;;4.93;3.72;;;;;;;;;;4999896;28;20830;-63
2023/09/02 07:15:37;;;;;;;5.80;3.22;;;;;;;;;;4997077;28;20426;-63
2023/09/02 07:18:04;;;;;;;3.50;3.20;;;;;;;;;;4994589;28;20412;-63
2023/09/02 07:20:31;;;;;;;4.80;2.70;;;;;;;;;;5015726;28;20419;-63
2023/09/02 07:22:58;;;;;;;3.67;2.90;;;;;;;;;;5000841;28;20412;-63
2023/09/02 07:25:25;;;;;;;4.67;2.90;;;;;;;;;;5011076;28;20575;-63
2023/09/02 07:27:52;;;;;;;5.60;2.70;;;;;;;;;;5000740;28;20772;-63
2023/09/02 07:30:21;;;;;;;2.58;2.33;;;;;;;;;;4999481;28;20428;-64
2023/09/02 07:32:48;;;;;;;2.35;2.13;;;;;;;;;;5015863;28;20420;-63
2023/09/02 07:35:15;;;;;;;3.92;2.92;;;;;;;;;;4995921;28;20414;-64
2023/09/02 07:37:42;;;;;;;2.70;2.50;;;;;;;;;;5004850;28;20413;-63
2023/09/02 07:40:09;;;;;;;2.95;2.50;;;;;;;;;;5001570;28;20417;-64
2023/09/02 07:42:36;;;;;;;3.17;2.30;;;;;;;;;;4990520;28;20415;-63
2023/09/02 07:45:04;;;;;;;2.90;2.25;;;;;;;;;;4992595;28;20419;-67
2023/09/02 07:47:32;;;;;;;2.90;2.10;;;;;;;;;;4990086;28;20426;-62
2023/09/02 07:49:59;;;;;;;2.53;1.80;;;;;;;;;;4985645;28;20437;-63
2023/09/02 07:52:26;;;;;;;4.43;1.95;;;;;;;;;;4989135;28;20415;-62
2023/09/02 07:54:53;;;;;;;3.20;2.00;;;;;;;;;;5001980;28;20432;-63
2023/09/02 07:57:20;;;;;;;3.60;1.90;;;;;;;;;;4998379;28;20426;-62
2023/09/02 07:59:47;;;;;;;3.70;2.25;;;;;;;;;;4996999;28;20410;-62
2023/09/02 08:02:14;;;;;;;2.70;1.85;;;;;;;;;;5004678;28;20490;-62
2023/09/02 08:04:43;;;;;;;2.30;2.03;;;;;;;;;;4989809;28;20914;-61
2023/09/02 08:07:10;;;;;;;2.87;2.00;;;;;;;;;;5002865;28;20412;-63
2023/09/02 08:09:37;;;;;;;13.40;10.27;;;;;;;;;;5009212;28;20445;-63
2023/09/02 08:12:04;;;;;;;3.42;1.83;;;;;;;;;;4996119;28;20416;-62
2023/09/02 08:14:31;;;;;;;3.92;1.85;;;;;;;;;;5004465;28;20422;-61
2023/09/02 08:16:58;;;;;;;4.22;1.98;;;;;;;;;;4991068;28;20414;-61
2023/09/02 08:19:25;;;;;;;3.38;2.08;;;;;;;;;;4988761;28;20428;-61
2023/09/02 08:21:54;;;;;;;2.40;1.70;;;;;;;;;;4986398;28;20425;-62
2023/09/02 08:24:21;;;;;;;3.97;1.53;;;;;;;;;;4989022;28;20420;-61
2023/09/02 08:26:48;;;;;;;3.28;1.80;;;;;;;;;;4992440;28;20429;-61
2023/09/02 08:29:15;;;;;;;2.00;1.60;;;;;;;;;;4987834;28;20789;-61
2023/09/02 08:31:42;;;;;;;2.67;1.60;;;;;;;;;;4992349;28;20454;-61
2023/09/02 08:34:09;;;;;;;2.53;1.70;;;;;;;;;;4992714;28;20424;-61
2023/09/02 08:36:36;;;;;;;3.15;1.40;;;;;;;;;;4997225;28;20425;-61
2023/09/02 08:39:04;;;;;;;2.13;1.30;;;;;;;;;;4992947;28;20527;-61
2023/09/02 08:41:32;;;;;;;4.38;2.75;;;;;;;;;;4998384;28;20421;-60
2023/09/02 08:44:02;;;;;;;1.55;1.40;;;;;;;;;;4990502;28;20418;-61
2023/09/02 08:46:31;;;;;;;2.00;1.35;;;;;;;;;;4989614;28;20414;-60
2023/09/02 08:48:59;;;;;;;2.40;1.20;;;;;;;;;;4991216;28;20433;-60
2023/09/02 08:51:27;;;;;;;1.65;1.20;;;;;;;;;;4999398;28;20711;-62
2023/09/02 08:53:55;;;;;;;2.72;1.20;;;;;;;;;;4990753;28;20429;-61
2023/09/02 08:56:25;;;;;;;1.98;1.48;;;;;;;;;;4994138;28;20415;-61
2023/09/02 08:58:54;;;;;;;2.13;1.40;;;;;;;;;;4989031;28;20920;-61
2023/09/02 09:01:22;;;;;;;2.13;1.38;;;;;;;;;;4993024;28;20784;-61
2023/09/02 09:03:50;;;;;;;1.70;1.25;;;;;;;;;;4987777;28;20428;-61
2023/09/02 09:06:18;;;;;;;5.22;1.30;;;;;;;;;;4994380;28;20533;-62
2023/09/02 09:08:45;;;;;;;2.70;1.30;;;;;;;;;;4986163;28;20420;-62
2023/09/02 09:11:13;;;;;;;1.77;1.10;;;;;;;;;;4993739;28;20430;-61
2023/09/02 09:13:45;;;;;;;2.25;1.27;;;;;;;;;;4984432;28;20427;-61
2023/09/02 09:16:13;;;;;;;3.88;1.10;;;;;;;;;;4986834;28;20505;-62
2023/09/02 09:18:40;;;;;;;1.30;1.20;;;;;;;;;;4991811;28;20418;-62
2023/09/02 09:21:07;;;;;;;3.38;1.60;;;;;;;;;;4992886;28;20893;-60
2023/09/02 09:23:35;;;;;;;2.47;1.30;;;;;;;;;;4988127;28;20419;-61
2023/09/02 09:26:03;;;;;;;1.15;1.00;;;;;;;;;;4992960;28;20412;-60
2023/09/02 09:28:50;;;;;;;3.65;1.08;;;;;;;;;;4988001;28;20421;-60
2023/09/02 09:31:19;;;;;;;2.08;1.20;;;;;;;;;;4988038;28;20994;-61
2023/09/02 09:33:49;;;;;;;2.85;1.25;;;;;;;;;;4989943;28;20913;-60
2023/09/02 09:36:17;;;;;;;2.80;1.17;;;;;;;;;;4988403;28;20423;-61
2023/09/02 09:38:44;;;;;;;1.67;1.02;;;;;;;;;;4988940;28;20416;-59
2023/09/02 09:41:11;;;;;;;1.40;1.00;;;;;;;;;;4989028;28;20410;-61
2023/09/02 09:43:38;;;;;;;1.33;0.80;;;;;;;;;;4987070;28;20426;-61
2023/09/02 09:46:05;;;;;;;1.23;0.82;;;;;;;;;;4983068;28;20414;-62
2023/09/02 09:48:33;;;;;;;1.73;1.00;;;;;;;;;;4989007;28;20421;-62
2023/09/02 09:51:00;;;;;;;1.90;0.90;;;;;;;;;;4986308;28;20517;-62
2023/09/02 09:53:32;;;;;;;1.73;0.80;;;;;;;;;;4997229;28;20817;-62
2023/09/02 09:56:03;;;;;;;2.22;1.42;;;;;;;;;;4989304;28;20419;-62
2023/09/02 09:58:30;;;;;;;2.67;1.40;;;;;;;;;;4994051;28;20838;-63
2023/09/02 10:00:57;;;;;;;3.72;1.10;;;;;;;;;;4986866;28;20418;-62
2023/09/02 10:03:30;;;;;;;1.25;0.98;;;;;;;;;;4990873;28;20425;-63
2023/09/02 10:06:01;;;;;;;1.60;0.90;;;;;;;;;;4986546;28;20498;-62
2023/09/02 10:08:28;;;;;;;3.15;1.00;;;;;;;;;;4989906;28;20461;-62
2023/09/02 10:10:55;;;;;;;2.33;0.90;;;;;;;;;;4988475;28;20448;-62
2023/09/02 10:13:22;;;;;;;1.20;0.90;;;;;;;;;;4993335;28;20437;-62
2023/09/02 10:15:50;;;;;;;1.73;0.90;;;;;;;;;;4979889;28;20496;-62
2023/09/02 10:18:17;;;;;;;2.25;1.00;;;;;;;;;;4990026;28;20448;-62
2023/09/02 10:20:45;;;;;;;1.73;0.98;;;;;;;;;;4984322;28;20423;-62
2023/09/02 10:23:13;;;;;;;1.83;0.90;;;;;;;;;;4993789;28;20418;-62
2023/09/02 10:25:45;;;;;;;1.90;1.00;;;;;;;;;;4983172;28;20787;-62
2023/09/02 10:28:17;;;;;;;1.20;0.70;;;;;;;;;;4993165;28;20506;-63
2023/09/02 10:30:45;;;;;;;1.70;0.88;;;;;;;;;;4982811;28;20439;-62
2023/09/02 10:33:14;;;;;;;2.58;0.95;;;;;;;;;;4992034;28;20418;-62
2023/09/02 10:35:44;;;;;;;4.15;1.52;;;;;;;;;;4988699;28;20417;-62
2023/09/02 10:38:13;;;;;;;2.33;1.30;;;;;;;;;;4991745;28;20473;-62
2023/09/02 10:40:42;;;;;;;1.40;0.95;;;;;;;;;;4987537;28;20421;-62
2023/09/02 10:43:09;;;;;;;2.63;1.33;;;;;;;;;;4991278;28;20415;-62
2023/09/02 10:45:37;;;;;;;3.35;0.98;;;;;;;;;;4982206;28;20426;-62
2023/09/02 10:48:04;;;;;;;4.57;1.10;;;;;;;;;;4987376;28;20412;-62
2023/09/02 10:50:31;;;;;;;1.00;0.88;;;;;;;;;;4986172;28;20425;-62
2023/09/02 10:52:58;;;;;;;1.27;0.88;;;;;;;;;;4990458;28;20423;-62
2023/09/02 10:55:25;;;;;;;2.00;1.10;;;;;;;;;;4986623;28;20770;-62
2023/09/02 10:57:55;;;;;;;1.20;0.90;;;;;;;;;;4988759;28;20423;-62
2023/09/02 11:00:23;;;;;;;2.47;0.90;;;;;;;;;;4992409;28;20457;-62
2023/09/02 11:02:52;;;;;;;1.80;0.90;;;;;;;;;;4987910;28;20412;-62
2023/09/02 11:05:19;;;;;;;2.88;1.10;;;;;;;;;;4992419;28;20508;-62
2023/09/02 11:07:47;;;;;;;1.25;1.00;;;;;;;;;;4986892;28;20421;-62
2023/09/02 11:10:14;;;;;;;2.58;0.90;;;;;;;;;;4991652;28;20431;-62
2023/09/02 11:13:00;;;;;;;1.85;1.13;;;;;;;;;;4985540;28;20802;-62
2023/09/02 11:15:29;;;;;;;3.80;1.13;;;;;;;;;;4981882;28;20418;-62
2023/09/02 11:17:56;;;;;;;1.83;1.00;;;;;;;;;;4985857;28;20903;-62
2023/09/02 11:20:25;;;;;;;2.20;1.20;;;;;;;;;;4994048;28;20967;-62
2023/09/02 11:22:55;;;;;;;2.47;1.05;;;;;;;;;;4988525;28;20423;-62
2023/09/02 11:25:41;;;;;;;3.50;1.30;;;;;;;;;;4996370;28;20918;-62
2023/09/02 11:28:08;;;;;;;2.55;1.30;;;;;;;;;;4991061;28;20413;-61
2023/09/02 11:30:38;;;;;;;3.60;1.50;;;;;;;;;;4993665;28;20801;-62
2023/09/02 11:33:05;;;;;;;2.10;1.43;;;;;;;;;;4989811;28;20435;-62
2023/09/02 11:35:33;;;;;;;3.35;1.90;;;;;;;;;;4993686;28;20426;-62
2023/09/02 11:38:00;;;;;;;3.58;1.85;;;;;;;;;;4991204;28;20416;-62
2023/09/02 11:40:28;;;;;;;2.65;1.90;;;;;;;;;;4991114;28;20525;-61
2023/09/02 11:42:56;;;;;;;4.05;1.90;;;;;;;;;;4989161;28;20426;-62
2023/09/02 11:45:23;;;;;;;3.40;2.00;;;;;;;;;;4986634;28;20419;-62
2023/09/02 11:47:52;;;;;;;4.60;1.98;;;;;;;;;;4986208;28;20420;-62
2023/09/02 11:50:20;;;;;;;4.75;1.85;;;;;;;;;;4993471;28;20425;-62
2023/09/02 11:52:48;;;;;;;2.80;1.77;;;;;;;;;;4992384;28;20504;-62
2023/09/02 11:55:15;;;;;;;3.78;1.85;;;;;;;;;;4994137;28;20857;-62
2023/09/02 11:57:43;;;;;;;3.15;2.00;;;;;;;;;;4990411;28;20410;-62
2023/09/02 12:00:15;;;;;;;3.50;2.20;;;;;;;;;;4993363;28;20430;-62
2023/09/02 12:02:42;;;;;;;3.17;2.00;;;;;;;;;;4989706;28;20916;-62
2023/09/02 12:05:11;;;;;;;4.33;1.90;;;;;;;;;;4993504;28;20414;-62
2023/09/02 12:07:38;;;;;;;4.75;2.13;;;;;;;;;;4988478;28;20502;-62
2023/09/02 12:10:07;;;;;;;3.10;1.90;;;;;;;;;;4988774;28;20419;-62
2023/09/02 12:12:34;;;;;;;2.72;2.00;;;;;;;;;;4988130;28;20461;-62
2023/09/02 12:15:03;;;;;;;2.97;1.70;;;;;;;;;;4986537;28;20785;-62
2023/09/02 12:17:30;;;;;;;3.65;1.80;;;;;;;;;;4987776;28;20489;-62
2023/09/02 12:19:57;;;;;;;3.87;1.80;;;;;;;;;;4990390;28;20968;-62
2023/09/02 12:22:26;;;;;;;2.78;1.60;;;;;;;;;;4994437;28;20414;-61
2023/09/02 12:24:53;;;;;;;3.20;1.75;;;;;;;;;;4986433;28;20409;-62
2023/09/02 12:27:20;;;;;;;3.17;1.63;;;;;;;;;;4987967;28;20530;-62
2023/09/02 12:29:57;;;;;;;3.55;1.90;;;;;;;;;;4985528;28;20768;-62
2023/09/02 12:32:24;;;;;;;2.50;1.50;;;;;;;;;;4992988;28;20431;-62
2023/09/02 12:34:51;;;;;;;3.10;1.70;;;;;;;;;;4987441;28;20515;-62
2023/09/02 12:37:19;;;;;;;3.33;1.70;;;;;;;;;;4992938;28;20769;-61
2023/09/02 12:39:47;;;;;;;3.42;2.00;;;;;;;;;;4986376;28;20420;-62
2023/09/02 12:42:15;;;;;;;2.13;1.90;;;;;;;;;;4992489;28;20420;-61
2023/09/02 12:44:48;;;;;;;2.70;1.70;;;;;;;;;;4982084;28;20544;-62
2023/09/02 12:47:18;;;;;;;3.72;1.90;;;;;;;;;;4990734;28;20431;-61
2023/09/02 12:49:45;;;;;;;4.47;2.10;;;;;;;;;;4985357;28;20424;-62
2023/09/02 12:52:15;;;;;;;4.07;2.27;;;;;;;;;;4996242;28;20437;-62
2023/09/02 12:54:47;;;;;;;2.97;2.17;;;;;;;;;;4983366;28;20768;-61
2023/09/02 12:57:14;;;;;;;3.13;2.20;;;;;;;;;;4997545;28;20414;-62
2023/09/02 12:59:41;;;;;;;3.10;2.40;;;;;;;;;;4981063;28;20424;-63
2023/09/02 13:02:08;;;;;;;2.67;2.15;;;;;;;;;;4982632;28;20418;-63
2023/09/02 13:04:36;;;;;;;3.65;2.50;;;;;;;;;;4981121;28;20420;-62
2023/09/02 13:07:04;;;;;;;3.60;2.80;;;;;;;;;;4991311;28;20414;-62
2023/09/02 13:09:31;;;;;;;4.40;2.50;;;;;;;;;;4985241;28;20453;-62
2023/09/02 13:12:01;;;;;;;3.60;2.80;;;;;;;;;;4989064;28;20474;-63
2023/09/02 13:14:28;;;;;;;4.28;2.97;;;;;;;;;;4982660;28;20443;-61
2023/09/02 13:16:55;;;;;;;4.05;3.65;;;;;;;;;;4986295;28;20855;-62
2023/09/02 13:19:23;;;;;;;6.10;3.60;;;;;;;;;;4988857;28;20436;-62
2023/09/02 13:21:50;;;;;;;4.10;3.70;;;;;;;;;;4991134;28;20503;-63
2023/09/02 13:24:18;;;;;;;4.45;3.40;;;;;;;;;;4988150;28;20420;-63
2023/09/02 13:26:45;;;;;;;6.22;3.80;;;;;;;;;;4990577;28;20774;-63
2023/09/02 13:29:14;;;;;;;4.40;3.67;;;;;;;;;;4989106;28;20434;-63
2023/09/02 13:31:41;;;;;;;5.80;4.70;;;;;;;;;;4976572;28;20432;-62
2023/09/02 13:34:08;;;;;;;5.63;4.07;;;;;;;;;;4986935;28;20441;-63
2023/09/02 13:36:35;;;;;;;6.75;4.97;;;;;;;;;;4985267;28;20426;-63
2023/09/02 13:39:02;;;;;;;6.85;5.90;;;;;;;;;;4989750;28;20429;-63
2023/09/02 13:41:29;;;;;;;6.10;5.50;;;;;;;;;;4984679;28;20509;-63
2023/09/02 13:43:56;;;;;;;6.90;6.10;;;;;;;;;;4985279;28;20895;-63
2023/09/02 13:46:25;;;;;;;8.75;5.97;;;;;;;;;;4982059;28;20425;-63
2023/09/02 13:48:52;;;;;;;8.10;6.33;;;;;;;;;;4988915;28;20443;-63
2023/09/02 13:51:22;;;;;;;6.00;5.38;;;;;;;;;;4989228;28;20421;-63
2023/09/02 13:53:49;;;;;;;7.18;6.10;;;;;;;;;;4988081;28;20434;-63
2023/09/02 13:56:16;;;;;;;7.85;5.88;;;;;;;;;;4989617;28;20418;-63
2023/09/02 13:58:46;;;;;;;10.82;6.00;;;;;;;;;;4986137;28;20418;-63
2023/09/02 14:01:14;;;;;;;8.00;7.20;;;;;;;;;;4988523;28;20419;-62
2023/09/02 14:03:43;;;;;;;9.57;8.52;;;;;;;;;;4991564;28;20425;-62
2023/09/02 14:06:10;;;;;;;11.57;9.45;;;;;;;;;;4987158;28;20418;-62
2023/09/02 14:08:38;;;;;;;9.80;8.80;;;;;;;;;;4991298;28;20418;-62
2023/09/02 14:11:06;;;;;;;11.07;9.23;;;;;;;;;;4987748;28;20411;-63
2023/09/02 14:13:36;;;;;;;12.25;11.00;;;;;;;;;;4991111;28;20434;-62
2023/09/02 14:16:04;;;;;;;13.43;11.90;;;;;;;;;;4980621;28;20418;-62
2023/09/02 14:18:31;;;;;;;13.73;11.97;;;;;;;;;;4984874;28;20418;-62
2023/09/02 14:20:59;;;;;;;12.90;11.52;;;;;;;;;;4986695;28;20431;-62
2023/09/02 14:23:26;;;;;;;11.98;10.77;;;;;;;;;;4986241;28;20426;-63
2023/09/02 14:25:53;;;;;;;14.15;12.65;;;;;;;;;;4981287;28;20432;-62
2023/09/02 14:28:21;;;;;;;13.32;11.93;;;;;;;;;;4988261;28;20781;-63
2023/09/02 14:30:48;;;;;;;14.48;12.40;;;;;;;;;;4984190;28;20443;-62
2023/09/02 14:33:15;;;;;;;13.80;12.40;;;;;;;;;;4987549;28;20793;-61
2023/09/02 14:35:42;;;;;;;14.25;12.10;;;;;;;;;;4985808;28;20432;-63
2023/09/02 14:38:10;;;;;;;14.63;13.13;;;;;;;;;;4983029;28;20414;-61